Time;durP1;ratioP1;P1;durP2;ratioP2;P2;SDS_P1;SDS_P2;PMS_P1;PMS_P2;Temp;Humidity;BMP_temperature;BMP_pressure;BME280_temperature;BME280_humidity;BME280_pressure;Samples;Min_cycle;Max_cycle;Signal;HPM_P1;HPM_P2
2022/04/19 00:02:45;;;;;;;16.50;9.67;;;5.40;99.90;;;;;;8253587;28;20222;-65
2022/04/19 00:06:46;;;;;;;17.07;9.57;;;5.50;99.90;;;;;;8265352;28;20184;-65
2022/04/19 00:10:47;;;;;;;10.13;6.10;;;5.50;99.90;;;;;;8251850;28;20263;-65
2022/04/19 00:14:47;;;;;;;14.37;8.43;;;5.60;99.90;;;;;;8251077;28;20192;-65
2022/04/19 00:18:48;;;;;;;13.73;7.37;;;5.60;99.90;;;;;;8256806;28;20206;-64
2022/04/19 00:22:49;;;;;;;18.83;9.03;;;5.60;27.80;;;;;;8262486;28;20242;-65
2022/04/19 00:26:50;;;;;;;15.33;8.50;;;5.60;99.90;;;;;;8263018;28;20190;-65
2022/04/19 00:30:51;;;;;;;11.67;7.77;;;5.60;99.90;;;;;;8261782;28;20907;-66
2022/04/19 00:34:52;;;;;;;11.60;7.17;;;5.50;99.90;;;;;;8252166;28;20291;-65
2022/04/19 00:38:52;;;;;;;12.97;8.30;;;5.50;99.90;;;;;;8253645;28;20219;-65
2022/04/19 00:42:54;;;;;;;13.63;8.47;;;5.40;99.90;;;;;;8256447;28;20458;-65
2022/04/19 00:46:55;;;;;;;12.70;7.53;;;5.40;99.90;;;;;;8251572;28;20279;-66
2022/04/19 00:50:56;;;;;;;12.53;7.53;;;5.50;99.90;;;;;;8250850;28;20184;-66
2022/04/19 00:54:59;;;;;;;12.47;7.50;;;5.40;1.00;;;;;;8262582;28;20191;-65
2022/04/19 00:58:59;;;;;;;13.57;7.57;;;5.40;1.00;;;;;;8258825;28;20305;-65
2022/04/19 01:03:01;;;;;;;14.73;8.03;;;5.40;1.00;;;;;;8258951;28;20204;-65
2022/04/19 01:07:02;;;;;;;11.60;6.87;;;5.30;99.90;;;;;;8250756;28;20195;-65
2022/04/19 01:15:21;;;;;;;11.30;7.37;;;5.20;77.40;;;;;;8247682;28;20322;-65
2022/04/19 01:19:22;;;;;;;11.67;6.60;;;5.30;1.00;;;;;;8257367;28;20188;-65
2022/04/19 01:23:24;;;;;;;11.87;6.93;;;5.30;1.00;;;;;;8255698;28;20259;-65
2022/04/19 01:27:25;;;;;;;9.30;6.13;;;5.30;1.00;;;;;;8260486;28;20191;-65
2022/04/19 01:31:26;;;;;;;11.97;6.67;;;5.30;1.00;;;;;;8259772;28;20549;-65
2022/04/19 01:35:27;;;;;;;10.33;6.60;;;5.30;1.00;;;;;;8261987;28;20249;-65
2022/04/19 01:43:47;;;;;;;9.33;6.63;;;5.30;26.00;;;;;;8245781;28;20339;-65
2022/04/19 01:47:48;;;;;;;11.70;7.17;;;5.30;99.90;;;;;;8248157;28;20187;-65
2022/04/19 01:51:49;;;;;;;14.70;8.53;;;5.20;99.90;;;;;;8257355;28;20334;-62
2022/04/19 01:55:50;;;;;;;10.43;6.63;;;5.20;99.90;;;;;;8250586;28;20188;-63
2022/04/19 01:59:51;;;;;;;9.33;6.17;;;5.30;1.00;;;;;;8254033;28;20279;-65
2022/04/19 02:03:52;;;;;;;9.33;5.30;;;5.20;99.90;;;;;;8254059;28;20199;-65
2022/04/19 02:07:53;;;;;;;10.57;6.47;;;5.20;99.90;;;;;;8254956;28;20229;-64
2022/04/19 02:11:54;;;;;;;9.00;6.33;;;5.20;99.90;;;;;;8253516;28;20191;-65
2022/04/19 02:15:55;;;;;;;10.30;5.97;;;5.20;99.90;;;;;;8248424;28;20186;-65
2022/04/19 02:20:06;;;;;;;9.03;4.73;;;5.20;99.90;;;;;;8249902;28;20274;-65
2022/04/19 02:24:07;;;;;;;9.57;5.33;;;5.10;99.90;;;;;;8260409;28;20203;-64
2022/04/19 02:28:10;;;;;;;7.93;5.63;;;5.10;99.90;;;;;;8254472;28;20236;-65
2022/04/19 02:32:11;;;;;;;8.33;5.07;;;5.10;99.90;;;;;;8256367;28;20282;-65
2022/04/19 02:36:11;;;;;;;9.80;5.70;;;5.10;99.90;;;;;;8262596;28;20191;-66
2022/04/19 02:40:12;;;;;;;9.87;6.13;;;5.10;1.00;;;;;;8251416;28;20207;-65
2022/04/19 02:44:13;;;;;;;7.90;4.97;;;5.10;1.00;;;;;;8251528;28;20215;-65
2022/04/19 02:48:18;;;;;;;9.50;5.53;;;5.10;1.00;;;;;;8255257;28;20179;-65
2022/04/19 02:52:19;;;;;;;9.70;6.23;;;5.10;4.60;;;;;;8257590;28;20191;-66
2022/04/19 02:56:20;;;;;;;9.40;5.67;;;5.10;99.90;;;;;;8250933;28;20194;-66
2022/04/19 03:00:21;;;;;;;8.50;5.60;;;5.10;99.90;;;;;;8248397;28;20195;-66
2022/04/19 03:04:22;;;;;;;10.07;5.87;;;5.00;99.90;;;;;;8253160;28;20207;-66
2022/04/19 03:08:24;;;;;;;9.73;6.00;;;5.00;99.90;;;;;;8245877;28;20172;-65
2022/04/19 03:12:25;;;;;;;8.60;5.77;;;5.00;99.90;;;;;;8252221;28;20188;-65
2022/04/19 03:16:26;;;;;;;9.20;5.63;;;5.00;99.90;;;;;;8255222;28;20653;-65
2022/04/19 03:20:27;;;;;;;14.67;7.07;;;5.00;99.90;;;;;;8255390;28;20209;-64
2022/04/19 03:28:47;;;;;;;20.90;12.90;;;5.00;99.90;;;;;;8258442;28;21336;-66
2022/04/19 03:32:52;;;;;;;19.37;11.57;;;5.10;1.00;;;;;;8257209;28;20194;-65
2022/04/19 03:36:53;;;;;;;20.47;11.07;;;5.00;1.00;;;;;;8252645;28;20199;-65
2022/04/19 03:40:54;;;;;;;13.10;8.43;;;5.00;1.00;;;;;;8257895;28;20307;-65
2022/04/19 03:44:55;;;;;;;15.33;10.63;;;5.00;1.00;;;;;;8260517;28;20247;-65
2022/04/19 03:48:56;;;;;;;18.80;11.60;;;5.00;1.00;;;;;;8251603;28;20190;-65
2022/04/19 03:52:56;;;;;;;18.43;11.50;;;4.90;1.00;;;;;;8250432;28;20215;-65
2022/04/19 03:56:57;;;;;;;21.87;14.10;;;4.90;1.00;;;;;;8250843;28;20192;-64
2022/04/19 04:01:01;;;;;;;20.20;13.60;;;4.90;99.90;;;;;;8260804;28;20198;-65
2022/04/19 04:05:03;;;;;;;24.47;14.13;;;4.90;21.50;;;;;;8250981;28;20218;-66
2022/04/19 04:09:04;;;;;;;17.00;9.90;;;4.90;57.90;;;;;;8255484;28;20185;-66
2022/04/19 04:13:05;;;;;;;12.93;6.90;;;4.90;99.90;;;;;;8255885;28;20196;-66
2022/04/19 04:17:06;;;;;;;9.90;5.83;;;4.90;99.90;;;;;;8257194;28;20245;-66
2022/04/19 04:21:07;;;;;;;8.37;5.47;;;4.90;99.90;;;;;;8257836;28;20195;-66
2022/04/19 04:25:08;;;;;;;7.77;4.93;;;4.80;99.90;;;;;;8253730;28;20219;-65
2022/04/19 04:29:09;;;;;;;10.43;5.77;;;4.80;99.90;;;;;;8252604;28;20227;-65
2022/04/19 04:33:10;;;;;;;6.17;4.33;;;4.90;99.90;;;;;;8248588;28;20207;-65
2022/04/19 04:37:11;;;;;;;7.93;5.43;;;4.90;99.90;;;;;;8253766;28;20187;-66
2022/04/19 04:41:12;;;;;;;8.17;5.60;;;5.00;99.90;;;;;;8254379;28;20219;-66
2022/04/19 04:45:13;;;;;;;14.10;7.57;;;5.00;1.00;;;;;;8250593;28;20219;-65
2022/04/19 04:53:33;;;;;;;15.83;10.67;;;5.10;1.00;;;;;;8251910;28;20261;-65
2022/04/19 04:57:34;;;;;;;17.00;10.13;;;5.20;1.00;;;;;;8255165;28;20191;-66
2022/04/19 05:01:35;;;;;;;13.63;8.27;;;5.40;1.00;;;;;;8251599;28;20220;-65
2022/04/19 05:05:35;;;;;;;26.57;17.07;;;5.50;1.00;;;;;;8250073;28;20223;-66
2022/04/19 05:09:36;;;;;;;15.47;10.93;;;5.60;99.90;;;;;;8255031;28;20435;-66
2022/04/19 05:13:37;;;;;;;11.00;6.27;;;5.70;99.90;;;;;;8251263;28;20373;-65
2022/04/19 05:17:37;;;;;;;11.33;6.90;;;5.80;99.90;;;;;;8263666;28;20204;-66
2022/04/19 05:21:38;;;;;;;22.97;9.70;;;5.80;99.90;;;;;;8253284;28;20202;-66
2022/04/19 05:25:39;;;;;;;23.27;11.37;;;5.80;99.90;;;;;;8259475;28;20464;-66
2022/04/19 05:29:40;;;;;;;16.67;9.47;;;5.90;99.90;;;;;;8257291;28;20203;-66
2022/04/19 05:33:41;;;;;;;12.53;8.73;;;5.90;99.90;;;;;;8244867;28;20212;-66
2022/04/19 05:37:42;;;;;;;16.77;10.33;;;6.10;64.90;;;;;;8240258;28;20206;-66
2022/04/19 05:41:43;;;;;;;12.07;8.37;;;6.10;89.40;;;;;;8255763;28;20302;-66
2022/04/19 05:45:44;;;;;;;15.77;8.53;;;6.20;1.00;;;;;;8254335;28;20211;-66
2022/04/19 05:49:45;;;;;;;25.73;11.30;;;6.40;1.00;;;;;;8247565;28;20282;-66
2022/04/19 05:53:46;;;;;;;8.03;4.80;;;6.60;1.00;;;;;;8252854;28;20183;-66
2022/04/19 05:57:47;;;;;;;7.17;4.50;;;6.70;99.90;;;;;;8248480;28;20522;-67
2022/04/19 06:06:07;;;;;;;5.23;3.67;;;6.90;99.90;;;;;;8242792;28;20309;-66
2022/04/19 06:10:08;;;;;;;3.97;2.80;;;7.30;99.90;;;;;;8250310;28;20192;-66
2022/04/19 06:14:09;;;;;;;8.40;3.50;;;7.70;99.90;;;;;;8254592;28;20187;-66
2022/04/19 06:18:10;;;;;;;5.63;3.07;;;8.00;99.90;;;;;;8251673;28;20191;-65
2022/04/19 06:22:11;;;;;;;7.20;4.10;;;7.70;99.90;;;;;;8248655;28;20195;-64
2022/04/19 06:26:12;;;;;;;4.00;3.00;;;7.90;99.90;;;;;;8250703;28;20183;-66
2022/04/19 06:30:14;;;;;;;9.77;6.47;;;8.10;99.90;;;;;;8250935;28;20206;-65
2022/04/19 06:34:16;;;;;;;16.40;10.30;;;8.10;99.90;;;;;;8257739;28;20189;-62
2022/04/19 06:38:17;;;;;;;8.67;5.93;;;8.20;99.90;;;;;;8249629;28;20223;-64
2022/04/19 06:42:19;;;;;;;8.37;5.17;;;8.30;99.90;;;;;;8249131;28;20211;-62
2022/04/19 06:46:20;;;;;;;6.33;4.20;;;8.50;99.90;;;;;;8245168;28;20268;-62
2022/04/19 06:50:23;;;;;;;7.70;4.40;;;8.80;99.90;;;;;;8255124;28;20180;-62
2022/04/19 06:54:24;;;;;;;7.33;4.10;;;9.00;99.90;;;;;;8248652;28;20335;-60
2022/04/19 06:58:24;;;;;;;5.90;4.77;;;9.00;99.90;;;;;;8248224;28;20187;-59
2022/04/19 07:02:25;;;;;;;5.57;3.37;;;9.10;99.90;;;;;;8249133;28;20214;-61
2022/04/19 07:06:26;;;;;;;6.33;3.87;;;9.00;97.90;;;;;;8255241;28;20218;-62
2022/04/19 07:10:27;;;;;;;7.23;4.73;;;9.10;99.90;;;;;;8249125;28;20187;-62
2022/04/19 07:14:28;;;;;;;9.50;5.30;;;8.90;99.90;;;;;;8247334;28;20209;-59
2022/04/19 07:18:29;;;;;;;9.20;5.10;;;8.60;99.90;;;;;;8247292;28;20194;-60
2022/04/19 07:26:49;;;;;;;13.43;6.20;;;8.10;99.90;;;;;;8250342;28;20207;-62
2022/04/19 07:30:50;;;;;;;15.67;6.33;;;8.00;99.90;;;;;;8243092;28;20227;-61
2022/04/19 07:34:51;;;;;;;11.20;4.93;;;7.90;99.90;;;;;;8242105;28;20199;-62
2022/04/19 07:38:52;;;;;;;9.73;4.40;;;7.80;99.90;;;;;;8246922;28;20207;-61
2022/04/19 07:42:53;;;;;;;8.43;5.00;;;7.90;99.90;;;;;;8247675;28;20631;-61
2022/04/19 07:46:54;;;;;;;5.03;3.33;;;8.00;99.90;;;;;;8241962;28;20278;-61
2022/04/19 07:50:54;;;;;;;8.90;4.10;;;8.00;99.90;;;;;;8246019;28;20249;-62
2022/04/19 07:54:55;;;;;;;6.77;3.80;;;7.90;99.90;;;;;;8256751;28;20199;-61
2022/04/19 07:58:56;;;;;;;5.67;3.60;;;7.80;99.90;;;;;;8249675;28;20195;-59
2022/04/19 08:02:58;;;;;;;3.60;2.60;;;7.80;99.90;;;;;;8247896;28;20216;-60
2022/04/19 08:07:00;;;;;;;8.63;4.67;;;7.60;99.90;;;;;;8248276;28;20271;-60
2022/04/19 08:11:00;;;;;;;5.50;3.87;;;7.30;99.90;;;;;;8248267;28;20187;-61
2022/04/19 08:15:01;;;;;;;7.00;4.10;;;7.20;99.90;;;;;;8239720;28;20191;-60
2022/04/19 08:19:02;;;;;;;7.83;3.70;;;7.60;99.90;;;;;;8244921;28;20256;-62
2022/04/19 08:23:03;;;;;;;4.50;3.20;;;7.90;99.90;;;;;;8250838;28;20299;-62
2022/04/19 08:27:04;;;;;;;34.17;18.47;;;8.00;99.90;;;;;;8250747;28;20514;-60
2022/04/19 08:31:05;;;;;;;6.33;3.77;;;8.00;99.90;;;;;;8251818;28;20188;-61
2022/04/19 08:35:06;;;;;;;4.23;3.27;;;8.30;99.90;;;;;;8250628;28;20219;-60
2022/04/19 08:39:09;;;;;;;6.03;3.20;;;8.30;99.90;;;;;;8252975;28;20270;-63
2022/04/19 08:43:11;;;;;;;5.77;3.80;;;8.60;99.90;;;;;;8257870;28;20204;-65
2022/04/19 08:47:13;;;;;;;8.93;4.07;;;8.60;99.90;;;;;;8250736;28;20184;-62
2022/04/19 08:51:18;;;;;;;4.93;3.30;;;8.70;99.90;;;;;;8248783;28;20266;-63
2022/04/19 08:59:38;;;;;;;7.30;4.73;;;9.70;99.90;;;;;;8247148;28;20222;-64
2022/04/19 09:03:41;;;;;;;11.13;5.00;;;10.20;99.90;;;;;;8249908;28;20690;-62
2022/04/19 09:07:43;;;;;;;6.77;3.73;;;10.60;99.90;;;;;;8247124;28;20200;-61
2022/04/19 09:11:43;;;;;;;15.47;6.37;;;11.00;99.90;;;;;;8244511;28;20184;-63
2022/04/19 09:15:45;;;;;;;6.80;4.00;;;11.50;99.90;;;;;;8246534;28;20204;-62
2022/04/19 09:19:46;;;;;;;6.90;4.87;;;11.60;99.90;;;;;;8251333;28;20191;-61
2022/04/19 09:23:53;;;;;;;8.33;4.83;;;11.60;99.90;;;;;;8249793;28;20228;-60
2022/04/19 09:27:56;;;;;;;7.13;4.20;;;11.80;99.90;;;;;;8234872;28;20202;-63
2022/04/19 09:31:58;;;;;;;44.27;23.93;;;11.60;99.90;;;;;;8264094;28;20186;-63
2022/04/19 09:36:04;;;;;;;8.70;5.10;;;11.00;99.90;;;;;;8242555;28;20188;-62
2022/04/19 09:40:05;;;;;;;5.50;3.50;;;10.80;99.90;;;;;;8250131;28;20213;-62
2022/04/19 09:44:07;;;;;;;4.53;3.43;;;10.50;99.90;;;;;;8254160;28;20216;-61
2022/04/19 09:48:15;;;;;;;9.03;5.10;;;10.20;99.90;;;;;;8249648;28;20273;-60
2022/04/19 09:52:25;;;;;;;7.20;3.30;;;10.20;99.90;;;;;;8249266;28;20199;-63
2022/04/19 09:56:37;;;;;;;10.60;6.43;;;10.30;99.90;;;;;;8245194;28;20456;-62
2022/04/19 10:00:37;;;;;;;5.97;4.00;;;10.30;99.90;;;;;;8242054;28;20180;-61
2022/04/19 10:08:58;;;;;;;5.53;3.73;;;10.30;99.90;;;;;;8248009;28;20283;-62
2022/04/19 10:13:01;;;;;;;3.50;1.83;;;9.70;1.00;;;;;;8244676;28;20194;-62
2022/04/19 10:17:05;;;;;;;5.50;3.20;;;8.90;1.00;;;;;;8241393;28;20294;-62
2022/04/19 10:21:09;;;;;;;2.60;1.43;;;8.00;99.90;;;;;;8241209;28;20232;-61
2022/04/19 10:25:13;;;;;;;3.87;3.10;;;7.60;99.90;;;;;;8244568;28;20395;-62
2022/04/19 10:29:19;;;;;;;3.90;3.43;;;7.30;99.90;;;;;;8245473;28;20188;-62
2022/04/19 10:33:39;;;;;;;11.27;7.23;;;7.10;1.00;;;;;;8242995;28;20196;-62
2022/04/19 10:37:42;;;;;;;14.00;8.13;;;6.90;1.00;;;;;;8233262;28;20196;-62
2022/04/19 10:41:52;;;;;;;6.00;3.23;;;6.90;1.00;;;;;;8240991;28;20253;-66
2022/04/19 10:45:54;;;;;;;21.83;10.00;;;6.60;99.90;;;;;;8237259;28;20216;-61
2022/04/19 10:50:07;;;;;;;14.30;6.73;;;7.40;1.00;;;;;;8241052;28;20199;-60
2022/04/19 10:54:08;;;;;;;6.93;3.50;;;8.20;1.00;;;;;;8242754;28;20220;-61
2022/04/19 10:58:21;;;;;;;6.87;4.07;;;8.80;1.00;;;;;;8242210;28;20199;-60
2022/04/19 11:02:37;;;;;;;5.80;2.80;;;9.20;99.90;;;;;;8245949;28;20279;-61
2022/04/19 11:06:40;;;;;;;9.20;4.00;;;9.20;99.90;;;;;;8241809;28;20198;-63
2022/04/19 11:10:41;;;;;;;8.17;4.43;;;9.10;99.90;;;;;;8240958;28;20219;-60
2022/04/19 11:14:43;;;;;;;7.53;3.83;;;9.20;99.90;;;;;;8244121;28;20219;-61
2022/04/19 11:18:44;;;;;;;14.03;5.93;;;9.40;99.90;;;;;;8243028;28;20184;-62
2022/04/19 11:22:51;;;;;;;14.23;7.17;;;9.70;99.90;;;;;;8240704;28;20210;-61
2022/04/19 11:26:52;;;;;;;15.27;7.40;;;10.00;99.90;;;;;;8246597;28;20188;-63
2022/04/19 11:30:56;;;;;;;12.90;5.73;;;10.40;99.90;;;;;;8245229;28;20299;-61
2022/04/19 11:35:04;;;;;;;6.63;3.73;;;10.70;99.90;;;;;;8243948;28;20199;-60
2022/04/19 11:39:05;;;;;;;20.73;9.00;;;10.70;99.90;;;;;;8248506;28;20200;-61
2022/04/19 11:47:27;;;;;;;12.00;5.60;;;11.40;99.90;;;;;;8256221;28;20235;-63
2022/04/19 11:51:30;;;;;;;4.00;2.87;;;12.00;99.90;;;;;;8251932;28;20195;-64
2022/04/19 11:55:30;;;;;;;20.43;9.70;;;12.50;91.60;;;;;;8250929;28;20552;-61
2022/04/19 11:59:35;;;;;;;11.47;5.80;;;12.60;91.70;;;;;;8256385;28;20287;-63
2022/04/19 12:03:37;;;;;;;9.00;5.83;;;12.50;87.00;;;;;;8249799;28;20219;-62
2022/04/19 12:07:45;;;;;;;3.43;2.60;;;12.00;99.90;;;;;;8247096;28;20220;-64
2022/04/19 12:11:47;;;;;;;5.57;3.97;;;10.80;99.90;;;;;;8246321;28;20188;-62
2022/04/19 12:15:48;;;;;;;6.13;3.70;;;9.40;1.00;;;;;;8243297;28;20192;-62
2022/04/19 12:24:45;;;;;;;12.50;6.90;;;8.20;99.90;;;;;;8201694;28;20337;-62
2022/04/19 12:28:47;;;;;;;24.07;12.87;;;8.70;99.90;;;;;;8194373;28;20353;-63
2022/04/19 12:32:51;;;;;;;23.57;9.40;;;9.00;99.90;;;;;;8200254;28;20200;-60
2022/04/19 12:36:52;;;;;;;11.30;7.00;;;9.20;75.00;;;;;;8195679;28;20192;-64
2022/04/19 12:40:53;;;;;;;10.87;6.50;;;9.10;1.00;;;;;;8196913;28;20226;-61
2022/04/19 12:45:09;;;;;;;13.47;7.53;;;9.00;1.00;;;;;;8191585;28;20440;-62
2022/04/19 12:49:28;;;;;;;12.63;8.27;;;9.10;1.00;;;;;;8196636;28;20224;-62
2022/04/19 12:53:33;;;;;;;14.07;8.23;;;9.40;1.00;;;;;;8220130;28;20275;-62
2022/04/19 12:57:36;;;;;;;11.77;7.37;;;9.70;1.00;;;;;;8196556;28;20208;-61
2022/04/19 13:01:36;;;;;;;12.77;6.63;;;10.40;99.90;;;;;;8213386;28;20200;-62
2022/04/19 13:14:16;;;;;;;18.93;8.63;;;11.50;99.90;;;;;;8224870;28;20215;-59
2022/04/19 13:18:17;;;;;;;8.47;7.23;;;11.90;99.90;;;;;;8242414;28;20194;-64
2022/04/19 13:22:18;;;;;;;8.63;5.27;;;11.80;99.90;;;;;;8246228;28;20184;-61
2022/04/19 13:26:19;;;;;;;10.17;5.23;;;11.90;99.90;;;;;;8254665;28;20185;-61
2022/04/19 13:30:21;;;;;;;8.57;5.17;;;12.00;99.90;;;;;;8244204;28;20204;-60
2022/04/19 13:34:22;;;;;;;5.67;4.27;;;12.00;99.90;;;;;;8249017;28;20195;-61
2022/04/19 13:38:24;;;;;;;4.03;3.63;;;11.70;99.90;;;;;;8246386;28;20221;-65
2022/04/19 13:42:24;;;;;;;6.40;4.80;;;11.40;99.90;;;;;;8248943;28;20192;-63
2022/04/19 13:46:25;;;;;;;7.87;4.87;;;11.30;99.90;;;;;;8246457;28;20201;-60
2022/04/19 13:50:26;;;;;;;14.27;7.17;;;11.20;99.90;;;;;;8248055;28;20193;-60
2022/04/19 13:54:27;;;;;;;9.03;6.20;;;11.40;99.90;;;;;;8247393;28;20194;-60
2022/04/19 13:58:28;;;;;;;10.97;6.00;;;11.50;99.90;;;;;;8245777;28;20215;-62
2022/04/19 14:02:29;;;;;;;9.60;5.07;;;11.50;99.90;;;;;;8246558;28;20204;-60
2022/04/19 14:06:30;;;;;;;12.70;7.10;;;11.50;99.90;;;;;;8246028;28;20192;-62
2022/04/19 14:10:31;;;;;;;19.17;9.23;;;11.80;99.90;;;;;;8232243;28;20214;-60
2022/04/19 14:14:33;;;;;;;8.77;7.13;;;12.20;99.90;;;;;;8246008;28;20202;-63
2022/04/19 14:18:36;;;;;;;10.87;6.67;;;12.40;99.90;;;;;;8246960;28;20213;-59
2022/04/19 14:22:37;;;;;;;8.67;6.43;;;12.50;99.90;;;;;;8247246;28;20225;-62
2022/04/19 14:26:38;;;;;;;5.67;4.30;;;12.40;92.50;;;;;;8246568;28;20186;-60
2022/04/19 14:34:58;;;;;;;9.17;5.47;;;12.20;92.60;;;;;;8250208;28;20252;-64
2022/04/19 14:39:00;;;;;;;10.07;6.53;;;11.90;73.00;;;;;;8247080;28;20214;-60
2022/04/19 14:43:00;;;;;;;11.43;7.60;;;11.70;97.10;;;;;;8247620;28;20215;-59
2022/04/19 14:47:02;;;;;;;17.87;9.80;;;11.40;99.90;;;;;;8244313;28;20196;-63
2022/04/19 14:55:24;;;;;;;8.13;5.63;;;11.40;99.90;;;;;;8245143;28;20238;-61
2022/04/19 14:59:24;;;;;;;8.13;5.10;;;11.10;99.90;;;;;;8245484;28;20190;-60
2022/04/19 15:03:25;;;;;;;9.90;5.90;;;10.90;99.90;;;;;;8245575;28;20219;-61
2022/04/19 15:07:27;;;;;;;5.60;4.27;;;10.90;99.90;;;;;;8244443;28;20303;-64
2022/04/19 15:11:27;;;;;;;7.83;5.10;;;11.00;99.90;;;;;;8252061;28;20183;-60
2022/04/19 15:15:28;;;;;;;7.60;5.33;;;11.00;99.90;;;;;;8252041;28;20188;-60
2022/04/19 15:19:29;;;;;;;5.37;4.60;;;11.00;99.90;;;;;;8251185;28;20191;-61
2022/04/19 15:23:30;;;;;;;6.13;4.23;;;10.80;75.60;;;;;;8249345;28;20223;-62
2022/04/19 15:27:31;;;;;;;15.70;8.37;;;10.70;99.90;;;;;;8252553;28;20221;-61
2022/04/19 15:31:33;;;;;;;15.13;9.23;;;10.70;99.90;;;;;;8253817;28;20270;-63
2022/04/19 15:35:33;;;;;;;6.77;5.07;;;10.90;99.90;;;;;;8251699;28;20196;-65
2022/04/19 15:39:35;;;;;;;9.33;4.40;;;11.00;99.90;;;;;;8251257;28;20267;-64
2022/04/19 15:43:35;;;;;;;7.73;6.13;;;11.00;99.90;;;;;;8252074;28;20717;-61
2022/04/19 15:47:41;;;;;;;10.03;5.67;;;11.10;99.90;;;;;;8248986;28;20188;-62
2022/04/19 15:51:42;;;;;;;7.57;4.80;;;11.20;99.90;;;;;;8248299;28;20297;-62
2022/04/19 15:55:44;;;;;;;10.93;6.00;;;11.30;99.90;;;;;;8251500;28;20214;-63
2022/04/19 15:59:45;;;;;;;5.53;4.43;;;11.40;99.90;;;;;;8250925;28;20215;-61
2022/04/19 16:03:46;;;;;;;8.43;5.80;;;11.30;99.90;;;;;;8250827;28;20211;-63
2022/04/19 16:07:47;;;;;;;11.63;6.07;;;11.00;99.90;;;;;;8236866;28;20184;-62
2022/04/19 16:11:48;;;;;;;10.17;5.30;;;10.50;65.90;;;;;;8250220;28;20187;-62
2022/04/19 16:15:48;;;;;;;13.50;5.10;;;10.30;76.80;;;;;;8253518;28;20271;-61
2022/04/19 16:24:09;;;;;;;5.70;3.87;;;9.70;99.90;;;;;;8250941;28;20218;-64
2022/04/19 16:28:10;;;;;;;9.13;5.13;;;9.50;96.80;;;;;;8249311;28;20200;-61
2022/04/19 16:32:10;;;;;;;10.30;5.53;;;9.40;99.90;;;;;;8250059;28;20590;-65
2022/04/19 16:36:11;;;;;;;10.40;5.80;;;9.20;99.90;;;;;;8246435;28;20192;-62
2022/04/19 16:40:12;;;;;;;9.60;7.03;;;9.10;99.90;;;;;;8250641;28;20210;-64
2022/04/19 16:44:13;;;;;;;22.13;17.00;;;9.00;99.90;;;;;;8247310;28;20293;-61
2022/04/19 16:48:14;;;;;;;19.13;10.63;;;8.90;99.90;;;;;;8250709;28;20270;-62
2022/04/19 16:52:15;;;;;;;26.07;13.87;;;8.80;99.90;;;;;;8251467;28;20223;-62
2022/04/19 16:56:16;;;;;;;45.33;21.17;;;8.70;99.90;;;;;;8249652;28;20234;-63
2022/04/19 17:00:17;;;;;;;67.87;27.13;;;8.70;99.90;;;;;;8250783;28;20222;-65
2022/04/19 17:04:18;;;;;;;39.47;17.30;;;8.70;99.90;;;;;;8248371;28;20222;-63
2022/04/19 17:08:18;;;;;;;16.00;9.37;;;8.60;99.90;;;;;;8247897;28;20191;-62
2022/04/19 17:12:19;;;;;;;10.50;7.17;;;8.50;99.90;;;;;;8246373;28;20188;-64
2022/04/19 17:16:20;;;;;;;8.97;4.90;;;8.30;99.90;;;;;;8247341;28;20258;-63
2022/04/19 17:20:21;;;;;;;8.93;4.77;;;8.10;1.00;;;;;;8251001;28;20214;-62
2022/04/19 17:24:22;;;;;;;13.47;8.93;;;7.90;1.00;;;;;;8256627;28;20203;-64
2022/04/19 17:28:23;;;;;;;17.30;12.50;;;7.90;1.00;;;;;;8254444;28;20223;-64
2022/04/19 17:32:29;;;;;;;11.57;8.60;;;7.90;1.00;;;;;;8245627;28;20234;-65
2022/04/19 17:36:30;;;;;;;7.53;5.93;;;7.90;1.00;;;;;;8245726;28;20215;-64
2022/04/19 17:40:31;;;;;;;3.80;3.13;;;7.80;1.00;;;;;;8248903;28;20426;-62
2022/04/19 17:44:32;;;;;;;3.73;2.77;;;7.80;1.00;;;;;;8244174;28;20239;-63
2022/04/19 17:48:37;;;;;;;6.47;3.03;;;7.80;99.90;;;;;;8247834;28;20203;-62
2022/04/19 17:56:57;;;;;;;6.30;3.90;;;7.50;99.90;;;;;;8250889;28;20207;-64
2022/04/19 18:00:58;;;;;;;5.80;3.57;;;7.30;99.90;;;;;;8247696;28;20240;-64
2022/04/19 18:04:59;;;;;;;6.93;4.53;;;7.10;99.90;;;;;;8245228;28;20215;-65
2022/04/19 18:09:00;;;;;;;9.03;5.50;;;7.00;99.90;;;;;;8248497;28;20185;-62
2022/04/19 18:13:01;;;;;;;7.67;5.37;;;6.90;1.00;;;;;;8249514;28;20192;-61
2022/04/19 18:17:02;;;;;;;6.80;4.17;;;6.90;1.00;;;;;;8245871;28;20583;-62
2022/04/19 18:21:04;;;;;;;7.20;4.00;;;6.80;1.00;;;;;;8247477;28;20452;-65
2022/04/19 18:25:13;;;;;;;6.07;4.20;;;6.70;1.00;;;;;;8246709;28;20258;-65
2022/04/19 18:29:13;;;;;;;8.10;5.90;;;6.60;21.40;;;;;;8244645;28;20266;-65
2022/04/19 18:33:14;;;;;;;6.37;5.33;;;6.50;64.30;;;;;;8243174;28;20510;-65
2022/04/19 18:37:15;;;;;;;7.70;5.80;;;6.40;99.90;;;;;;8244011;28;20286;-65
2022/04/19 18:41:16;;;;;;;5.37;4.50;;;6.40;99.90;;;;;;8241702;28;20290;-65
2022/04/19 18:45:17;;;;;;;5.20;4.60;;;6.30;99.90;;;;;;8240816;28;20219;-65
2022/04/19 18:49:18;;;;;;;4.30;3.40;;;6.20;99.90;;;;;;8242444;28;20194;-65
2022/04/19 18:53:20;;;;;;;4.37;3.73;;;6.00;1.00;;;;;;8244873;28;20188;-65
2022/04/19 18:57:20;;;;;;;4.27;3.53;;;5.70;1.00;;;;;;8245017;28;20202;-65
2022/04/19 19:01:21;;;;;;;5.90;3.83;;;5.50;1.00;;;;;;8243778;28;20191;-65
2022/04/19 19:05:22;;;;;;;5.43;3.60;;;5.30;1.00;;;;;;8245704;28;20270;-65
2022/04/19 19:09:23;;;;;;;4.93;3.70;;;5.10;41.80;;;;;;8242886;28;20430;-65
2022/04/19 19:13:24;;;;;;;6.00;3.73;;;4.90;99.90;;;;;;8244100;28;20215;-65
2022/04/19 19:17:25;;;;;;;5.00;3.30;;;4.70;99.90;;;;;;8246465;28;20184;-67
2022/04/19 19:21:27;;;;;;;4.63;3.63;;;4.40;1.00;;;;;;8243490;28;20192;-67
2022/04/19 19:25:28;;;;;;;7.10;6.10;;;4.20;99.90;;;;;;8244452;28;20219;-68
2022/04/19 19:29:29;;;;;;;10.57;6.47;;;4.00;99.90;;;;;;8242487;28;20204;-67
2022/04/19 19:33:29;;;;;;;7.57;4.80;;;3.80;1.00;;;;;;8240889;28;20188;-68
2022/04/19 19:37:32;;;;;;;7.10;4.63;;;3.60;99.90;;;;;;8246341;28;20236;-67
2022/04/19 19:41:33;;;;;;;6.27;4.20;;;3.40;99.90;;;;;;8244588;28;20213;-67
2022/04/19 19:45:33;;;;;;;6.30;4.50;;;3.20;1.00;;;;;;8239483;28;20212;-67
2022/04/19 19:49:34;;;;;;;6.47;4.87;;;3.10;99.90;;;;;;8241999;28;20525;-67
2022/04/19 19:53:35;;;;;;;4.97;4.10;;;2.90;99.90;;;;;;8241892;28;20427;-67
2022/04/19 19:57:36;;;;;;;5.40;4.50;;;2.70;1.00;;;;;;8250967;28;20242;-67
2022/04/19 20:01:38;;;;;;;5.37;4.20;;;2.60;99.90;;;;;;8251528;28;20568;-67
2022/04/19 20:05:39;;;;;;;6.27;4.23;;;2.40;99.90;;;;;;8248916;28;20230;-67
2022/04/19 20:09:40;;;;;;;6.90;4.80;;;2.30;1.00;;;;;;8250040;28;20188;-67
2022/04/19 20:13:44;;;;;;;6.10;4.77;;;2.10;99.90;;;;;;8243509;28;20191;-67
2022/04/19 20:17:46;;;;;;;7.13;5.03;;;2.00;99.90;;;;;;8250083;28;20188;-67
2022/04/19 20:21:49;;;;;;;9.40;5.53;;;1.90;1.00;;;;;;8252037;28;20191;-67
2022/04/19 20:25:50;;;;;;;8.90;6.87;;;1.70;99.90;;;;;;8245453;28;20222;-67
2022/04/19 20:29:51;;;;;;;15.30;11.00;;;1.60;1.00;;;;;;8246568;28;20219;-67
2022/04/19 20:33:52;;;;;;;16.77;11.57;;;1.50;99.90;;;;;;8248395;28;20192;-67
2022/04/19 20:37:53;;;;;;;10.80;7.77;;;1.40;99.90;;;;;;8250047;28;20199;-67
2022/04/19 20:41:54;;;;;;;14.47;8.87;;;1.20;42.90;;;;;;8249769;28;20219;-67
2022/04/19 20:45:55;;;;;;;12.97;8.50;;;1.10;99.90;;;;;;8247520;28;20215;-67
2022/04/19 20:50:08;;;;;;;14.13;8.30;;;1.00;25.10;;;;;;8250234;28;20253;-67
2022/04/19 20:54:09;;;;;;;10.50;7.10;;;1.00;99.90;;;;;;8247573;28;20201;-67
2022/04/19 20:58:10;;;;;;;10.90;6.50;;;0.90;99.90;;;;;;8251162;28;20189;-66
2022/04/19 21:02:11;;;;;;;9.20;6.00;;;0.80;99.90;;;;;;8250750;28;20209;-67
2022/04/19 21:06:12;;;;;;;8.83;5.30;;;0.70;99.90;;;;;;8251130;28;20211;-67
2022/04/19 21:10:13;;;;;;;6.77;4.77;;;0.60;99.90;;;;;;8246097;28;20189;-67
2022/04/19 21:14:14;;;;;;;6.03;4.63;;;0.50;99.90;;;;;;8260773;28;20198;-71
2022/04/19 21:18:15;;;;;;;6.17;4.30;;;0.40;1.00;;;;;;8247757;28;20202;-67
2022/04/19 21:22:15;;;;;;;6.10;4.90;;;0.30;1.00;;;;;;8250932;28;20236;-67
2022/04/19 21:26:16;;;;;;;6.30;4.80;;;0.20;71.20;;;;;;8250715;28;20323;-67
2022/04/19 21:30:17;;;;;;;6.23;4.77;;;0.10;99.90;;;;;;8250052;28;20220;-66
2022/04/19 21:34:18;;;;;;;6.00;4.60;;;0.00;99.90;;;;;;8250741;28;20188;-67
2022/04/19 21:38:19;;;;;;;8.33;4.57;;;-0.10;99.90;;;;;;8251313;28;20274;-67
2022/04/19 21:42:20;;;;;;;8.07;4.97;;;-0.10;99.90;;;;;;8250199;28;20477;-68
2022/04/19 21:46:21;;;;;;;7.47;4.67;;;-0.20;1.00;;;;;;8250341;28;20287;-67
2022/04/19 21:50:21;;;;;;;6.23;4.37;;;-0.20;1.00;;;;;;8249645;28;20195;-67
2022/04/19 21:54:22;;;;;;;5.93;4.47;;;-0.30;1.00;;;;;;8247296;28;20200;-67
2022/04/19 21:58:23;;;;;;;6.33;4.30;;;-0.40;1.00;;;;;;8248622;28;20223;-68
2022/04/19 22:02:24;;;;;;;6.00;4.50;;;-0.50;1.70;;;;;;8247956;28;20196;-67
2022/04/19 22:06:25;;;;;;;6.00;4.00;;;-0.50;49.40;;;;;;8250214;28;20227;-68
2022/04/19 22:10:26;;;;;;;6.17;4.53;;;-0.60;99.90;;;;;;8250096;28;20234;-67
2022/04/19 22:14:26;;;;;;;7.43;4.97;;;-0.60;99.90;;;;;;8248289;28;20194;-68